Allenhurst, NJ

6:28 AM EDT on October 25, 2014 (GMT -0400)
Asbury Park | Change Station
CLOSE
Current Station
Personal Weather Station
Location: Asbury Park, NJ
Elevation: 7 ft
Nearby Weather Stations

Elev 7 ft 40.22 °N, 74.01 °W | Updated 13 minutes ago

Clear
Clear
49.3 °F
Feels Like 46 °F
N
7.3
Wind Variable Wind from NNW

Today
High -- | Low -- °F
--% Chance of Precip.
Yesterday
High -- | Low -- °F
Precip. -- in
7:17 AM 6:01 PM
New Moon, 2% visible
Pressure 29.88 in
Visibility 10.0 miles
Clouds Clear
Windchill 46 °F
Dew Point 33 °F
Humidity 53%
Rainfall 0.00 in
Snow Depth Not available.
UV 0 out of 12
Pollen .40 out of 12
Air Quality Not available.
Flu Activity Sporadic
METAR KBLM 251015Z AUTO 30005KT 10SM CLR 07/00 A2988 RMK AO1

More Conditions Fewer Conditions

Pressure 29.88 in
Visibility 10.0 miles
Clouds Clear
Windchill 46 °F
Dew Point 33 °F
Humidity 53%
Rainfall 0.00 in
Snow Depth Not available.
UV 0 out of 12
Pollen .40 out of 12
Air Quality Not available.
Flu Activity Sporadic
METAR KBLM 251015Z AUTO 30005KT 10SM CLR 07/00 A2988 RMK AO1

More Conditions Fewer Conditions

10-Day Weather Forecast

Almanac

Astronomy

Oct. 25, 2014 Rise Set
Actual Time 7:17 AM EDT 6:01 PM EDT
Civil Twilight 6:49 AM EDT 6:29 PM EDT
Nautical Twilight 6:17 AM EDT 7:01 PM EDT
Astronomical Twilight 5:46 AM EDT 7:33 PM EDT
Moon 8:53 AM EDT 7:22 PM EDT
Length of Visible Light 11h 40m
Length of Day
10h 44m
Tomorrow will be 2m 26s shorter.
New Moon, 2% of the Moon is Illuminated
Today
New Moon
Oct 30
First Quarter
Nov 6
Full
Nov 14
Last Quarter
Nov 22
New

Today's Extremes

State Highs State Lows

Community

WunderPhotos

Upload Photos

1,764,806 photos uploaded!

Nearby

Snow Depth

Station Depth Elevation
No new snow has been reported.

Earthquake Activity

City Distance Mag. Time & Date
No recent earthquake activity has been reported nearby.
Minimum magnitude displayed is 2.5.

Coastal Water Temperatures

Place Temperature
Sandy Hook, NJ 57.0 °F
Bergen Point West Reach, NJ 60.1 °F
The Battery, NY 61.0 °F

Nearby Weather Stations